sensor_id;sensor_type;location;lat;lon;timestamp;temperature;humidity
6556;DHT22;3311;48.32423000;14.29074500;2023-03-03T00:00:49;10.60;47.40
6556;DHT22;3311;48.32423000;14.29074500;2023-03-03T00:03:21;10.70;47.40
6556;DHT22;3311;48.32423000;14.29074500;2023-03-03T00:05:49;10.50;47.40
6556;DHT22;3311;48.32423000;14.29074500;2023-03-03T00:08:17;10.50;47.60
6556;DHT22;3311;48.32423000;14.29074500;2023-03-03T00:10:46;10.50;47.40
6556;DHT22;3311;48.32423000;14.29074500;2023-03-03T00:13:16;10.50;47.30
6556;DHT22;3311;48.32423000;14.29074500;2023-03-03T00:15:44;10.50;47.30
6556;DHT22;3311;48.32423000;14.29074500;2023-03-03T00:18:21;10.50;47.30
6556;DHT22;3311;48.32423000;14.29074500;2023-03-03T00:20:54;10.40;47.50
6556;DHT22;3311;48.32423000;14.29074500;2023-03-03T00:23:39;10.40;47.60
6556;DHT22;3311;48.32423000;14.29074500;2023-03-03T00:26:17;10.50;47.50
6556;DHT22;3311;48.32423000;14.29074500;2023-03-03T00:28:48;10.50;47.50
6556;DHT22;3311;48.32423000;14.29074500;2023-03-03T00:31:17;10.40;47.60
6556;DHT22;3311;48.32423000;14.29074500;2023-03-03T00:33:48;10.40;47.60
6556;DHT22;3311;48.32423000;14.29074500;2023-03-03T00:36:32;10.30;47.70
6556;DHT22;3311;48.32423000;14.29074500;2023-03-03T00:39:18;10.40;47.60
6556;DHT22;3311;48.32423000;14.29074500;2023-03-03T00:41:49;10.40;47.70
6556;DHT22;3311;48.32423000;14.29074500;2023-03-03T00:44:47;10.40;47.50
6556;DHT22;3311;48.32423000;14.29074500;2023-03-03T00:47:24;10.30;47.60
6556;DHT22;3311;48.32423000;14.29074500;2023-03-03T00:49:53;10.30;47.60
6556;DHT22;3311;48.32423000;14.29074500;2023-03-03T00:52:20;10.40;47.60
6556;DHT22;3311;48.32423000;14.29074500;2023-03-03T00:54:50;10.40;47.50
6556;DHT22;3311;48.32423000;14.29074500;2023-03-03T00:57:18;10.40;47.50
6556;DHT22;3311;48.32423000;14.29074500;2023-03-03T00:59:46;10.30;47.50
6556;DHT22;3311;48.32423000;14.29074500;2023-03-03T01:02:13;10.30;47.60
6556;DHT22;3311;48.32423000;14.29074500;2023-03-03T01:04:41;10.30;47.50
6556;DHT22;3311;48.32423000;14.29074500;2023-03-03T01:07:10;10.30;47.60
6556;DHT22;3311;48.32423000;14.29074500;2023-03-03T01:09:37;10.20;47.50
6556;DHT22;3311;48.32423000;14.29074500;2023-03-03T01:12:04;10.30;47.60
6556;DHT22;3311;48.32423000;14.29074500;2023-03-03T01:14:33;10.20;47.50
6556;DHT22;3311;48.32423000;14.29074500;2023-03-03T01:17:04;10.20;47.60
6556;DHT22;3311;48.32423000;14.29074500;2023-03-03T01:19:31;10.20;47.40
6556;DHT22;3311;48.32423000;14.29074500;2023-03-03T01:21:58;10.10;47.60
6556;DHT22;3311;48.32423000;14.29074500;2023-03-03T01:24:25;10.20;47.60
6556;DHT22;3311;48.32423000;14.29074500;2023-03-03T01:26:53;10.20;47.50
6556;DHT22;3311;48.32423000;14.29074500;2023-03-03T01:29:20;10.20;47.70
6556;DHT22;3311;48.32423000;14.29074500;2023-03-03T01:31:49;10.20;47.60
6556;DHT22;3311;48.32423000;14.29074500;2023-03-03T01:34:16;10.20;47.60
6556;DHT22;3311;48.32423000;14.29074500;2023-03-03T01:36:43;10.20;47.70
6556;DHT22;3311;48.32423000;14.29074500;2023-03-03T01:39:10;10.20;47.70
6556;DHT22;3311;48.32423000;14.29074500;2023-03-03T01:41:38;10.20;47.70
6556;DHT22;3311;48.32423000;14.29074500;2023-03-03T01:44:05;10.20;47.60
6556;DHT22;3311;48.32423000;14.29074500;2023-03-03T01:46:45;10.20;47.40
6556;DHT22;3311;48.32423000;14.29074500;2023-03-03T01:49:18;10.10;47.50
6556;DHT22;3311;48.32423000;14.29074500;2023-03-03T01:51:51;10.10;47.70
6556;DHT22;3311;48.32423000;14.29074500;2023-03-03T01:54:24;10.10;47.70
6556;DHT22;3311;48.32423000;14.29074500;2023-03-03T01:56:56;10.10;47.60
6556;DHT22;3311;48.32423000;14.29074500;2023-03-03T01:59:28;10.10;47.80
6556;DHT22;3311;48.32423000;14.29074500;2023-03-03T02:01:57;10.00;47.90
6556;DHT22;3311;48.32423000;14.29074500;2023-03-03T02:04:26;10.00;48.00
6556;DHT22;3311;48.32423000;14.29074500;2023-03-03T02:06:58;9.90;49.00
6556;DHT22;3311;48.32423000;14.29074500;2023-03-03T02:09:31;10.00;48.20
6556;DHT22;3311;48.32423000;14.29074500;2023-03-03T02:12:02;9.90;48.90
6556;DHT22;3311;48.32423000;14.29074500;2023-03-03T02:14:31;10.00;48.00
6556;DHT22;3311;48.32423000;14.29074500;2023-03-03T02:16:58;9.90;49.00
6556;DHT22;3311;48.32423000;14.29074500;2023-03-03T02:19:34;9.90;49.10
6556;DHT22;3311;48.32423000;14.29074500;2023-03-03T02:22:02;10.00;48.20
6556;DHT22;3311;48.32423000;14.29074500;2023-03-03T02:24:34;10.00;48.10
6556;DHT22;3311;48.32423000;14.29074500;2023-03-03T02:27:06;10.00;48.10
6556;DHT22;3311;48.32423000;14.29074500;2023-03-03T02:29:33;10.00;48.10
6556;DHT22;3311;48.32423000;14.29074500;2023-03-03T02:32:01;10.00;48.20
6556;DHT22;3311;48.32423000;14.29074500;2023-03-03T02:34:28;10.00;48.30
6556;DHT22;3311;48.32423000;14.29074500;2023-03-03T02:36:55;9.90;49.10
6556;DHT22;3311;48.32423000;14.29074500;2023-03-03T02:39:25;9.90;49.30
6556;DHT22;3311;48.32423000;14.29074500;2023-03-03T02:41:59;9.80;49.40
6556;DHT22;3311;48.32423000;14.29074500;2023-03-03T02:44:31;9.80;49.60
6556;DHT22;3311;48.32423000;14.29074500;2023-03-03T02:46:59;9.90;49.60
6556;DHT22;3311;48.32423000;14.29074500;2023-03-03T02:49:28;9.90;49.40
6556;DHT22;3311;48.32423000;14.29074500;2023-03-03T02:51:56;9.90;49.50
6556;DHT22;3311;48.32423000;14.29074500;2023-03-03T02:54:25;9.90;49.70
6556;DHT22;3311;48.32423000;14.29074500;2023-03-03T02:56:53;9.90;49.70
6556;DHT22;3311;48.32423000;14.29074500;2023-03-03T02:59:20;9.80;49.90
6556;DHT22;3311;48.32423000;14.29074500;2023-03-03T03:01:49;9.70;49.90
6556;DHT22;3311;48.32423000;14.29074500;2023-03-03T03:04:19;9.80;49.90
6556;DHT22;3311;48.32423000;14.29074500;2023-03-03T03:06:47;9.80;49.90
6556;DHT22;3311;48.32423000;14.29074500;2023-03-03T03:09:15;9.90;49.90
6556;DHT22;3311;48.32423000;14.29074500;2023-03-03T03:11:43;9.90;49.80
6556;DHT22;3311;48.32423000;14.29074500;2023-03-03T03:14:12;9.90;49.70
6556;DHT22;3311;48.32423000;14.29074500;2023-03-03T03:16:41;9.90;49.70
6556;DHT22;3311;48.32423000;14.29074500;2023-03-03T03:19:10;9.80;49.70
6556;DHT22;3311;48.32423000;14.29074500;2023-03-03T03:21:37;9.80;49.70
6556;DHT22;3311;48.32423000;14.29074500;2023-03-03T03:24:05;9.80;49.60
6556;DHT22;3311;48.32423000;14.29074500;2023-03-03T03:26:32;9.80;49.90
6556;DHT22;3311;48.32423000;14.29074500;2023-03-03T03:28:59;9.80;49.50
6556;DHT22;3311;48.32423000;14.29074500;2023-03-03T03:31:27;9.80;49.70
6556;DHT22;3311;48.32423000;14.29074500;2023-03-03T03:33:54;9.80;49.80
6556;DHT22;3311;48.32423000;14.29074500;2023-03-03T03:36:23;9.80;49.80
6556;DHT22;3311;48.32423000;14.29074500;2023-03-03T03:38:52;9.80;49.90
6556;DHT22;3311;48.32423000;14.29074500;2023-03-03T03:41:19;9.70;49.80
6556;DHT22;3311;48.32423000;14.29074500;2023-03-03T03:43:47;9.70;50.00
6556;DHT22;3311;48.32423000;14.29074500;2023-03-03T03:46:14;9.80;50.20
6556;DHT22;3311;48.32423000;14.29074500;2023-03-03T03:48:41;9.70;50.20
6556;DHT22;3311;48.32423000;14.29074500;2023-03-03T03:51:10;9.70;50.20
6556;DHT22;3311;48.32423000;14.29074500;2023-03-03T03:53:38;9.70;50.20
6556;DHT22;3311;48.32423000;14.29074500;2023-03-03T03:56:06;9.70;50.10
6556;DHT22;3311;48.32423000;14.29074500;2023-03-03T03:58:34;9.70;49.90
6556;DHT22;3311;48.32423000;14.29074500;2023-03-03T04:01:03;9.80;49.90
6556;DHT22;3311;48.32423000;14.29074500;2023-03-03T04:03:30;9.80;49.80
6556;DHT22;3311;48.32423000;14.29074500;2023-03-03T04:05:58;9.80;49.60
6556;DHT22;3311;48.32423000;14.29074500;2023-03-03T04:08:25;9.80;49.70
6556;DHT22;3311;48.32423000;14.29074500;2023-03-03T04:10:54;9.70;49.80
6556;DHT22;3311;48.32423000;14.29074500;2023-03-03T04:13:21;9.70;49.70
6556;DHT22;3311;48.32423000;14.29074500;2023-03-03T04:15:49;9.70;49.80
6556;DHT22;3311;48.32423000;14.29074500;2023-03-03T04:18:16;9.60;50.00
6556;DHT22;3311;48.32423000;14.29074500;2023-03-03T04:20:43;9.60;50.10
6556;DHT22;3311;48.32423000;14.29074500;2023-03-03T04:23:11;9.60;50.10
6556;DHT22;3311;48.32423000;14.29074500;2023-03-03T04:25:39;9.50;50.20
6556;DHT22;3311;48.32423000;14.29074500;2023-03-03T04:28:08;9.60;50.30
6556;DHT22;3311;48.32423000;14.29074500;2023-03-03T04:30:35;9.60;50.40
6556;DHT22;3311;48.32423000;14.29074500;2023-03-03T04:33:02;9.60;50.90
6556;DHT22;3311;48.32423000;14.29074500;2023-03-03T04:35:30;9.50;50.50
6556;DHT22;3311;48.32423000;14.29074500;2023-03-03T04:37:57;9.50;50.60
6556;DHT22;3311;48.32423000;14.29074500;2023-03-03T04:40:24;9.50;50.80
6556;DHT22;3311;48.32423000;14.29074500;2023-03-03T04:42:51;9.50;50.80
6556;DHT22;3311;48.32423000;14.29074500;2023-03-03T04:45:20;9.50;50.70
6556;DHT22;3311;48.32423000;14.29074500;2023-03-03T04:47:47;9.50;50.70
6556;DHT22;3311;48.32423000;14.29074500;2023-03-03T04:50:15;9.60;50.50
6556;DHT22;3311;48.32423000;14.29074500;2023-03-03T04:52:42;9.50;50.50
6556;DHT22;3311;48.32423000;14.29074500;2023-03-03T04:55:10;9.40;50.60
6556;DHT22;3311;48.32423000;14.29074500;2023-03-03T04:57:37;9.40;50.90
6556;DHT22;3311;48.32423000;14.29074500;2023-03-03T05:00:06;9.40;50.90
6556;DHT22;3311;48.32423000;14.29074500;2023-03-03T05:02:35;9.40;50.90
6556;DHT22;3311;48.32423000;14.29074500;2023-03-03T05:05:03;9.30;50.80
6556;DHT22;3311;48.32423000;14.29074500;2023-03-03T05:07:31;9.40;51.00
6556;DHT22;3311;48.32423000;14.29074500;2023-03-03T05:09:58;9.40;50.90
6556;DHT22;3311;48.32423000;14.29074500;2023-03-03T05:12:25;9.40;50.70
6556;DHT22;3311;48.32423000;14.29074500;2023-03-03T05:14:53;9.40;50.60
6556;DHT22;3311;48.32423000;14.29074500;2023-03-03T05:17:20;9.40;50.50
6556;DHT22;3311;48.32423000;14.29074500;2023-03-03T05:19:49;9.40;50.60
6556;DHT22;3311;48.32423000;14.29074500;2023-03-03T05:22:16;9.40;50.60
6556;DHT22;3311;48.32423000;14.29074500;2023-03-03T05:24:43;9.30;50.70
6556;DHT22;3311;48.32423000;14.29074500;2023-03-03T05:27:13;9.30;50.80
6556;DHT22;3311;48.32423000;14.29074500;2023-03-03T05:29:41;9.30;50.70
6556;DHT22;3311;48.32423000;14.29074500;2023-03-03T05:32:08;9.30;50.90
6556;DHT22;3311;48.32423000;14.29074500;2023-03-03T05:34:35;9.30;50.80
6556;DHT22;3311;48.32423000;14.29074500;2023-03-03T05:37:04;9.30;50.70
6556;DHT22;3311;48.32423000;14.29074500;2023-03-03T05:39:32;9.30;50.80
6556;DHT22;3311;48.32423000;14.29074500;2023-03-03T05:41:59;9.20;50.80
6556;DHT22;3311;48.32423000;14.29074500;2023-03-03T05:44:27;9.30;50.80
6556;DHT22;3311;48.32423000;14.29074500;2023-03-03T05:46:54;9.30;50.70
6556;DHT22;3311;48.32423000;14.29074500;2023-03-03T05:49:24;9.30;50.50
6556;DHT22;3311;48.32423000;14.29074500;2023-03-03T05:51:51;9.40;50.40
6556;DHT22;3311;48.32423000;14.29074500;2023-03-03T05:54:20;9.40;50.30
6556;DHT22;3311;48.32423000;14.29074500;2023-03-03T05:56:47;9.30;50.40
6556;DHT22;3311;48.32423000;14.29074500;2023-03-03T05:59:14;9.20;50.80
6556;DHT22;3311;48.32423000;14.29074500;2023-03-03T06:01:41;9.20;50.80
6556;DHT22;3311;48.32423000;14.29074500;2023-03-03T06:04:08;9.20;50.80
6556;DHT22;3311;48.32423000;14.29074500;2023-03-03T06:06:36;9.20;50.70
6556;DHT22;3311;48.32423000;14.29074500;2023-03-03T06:09:03;9.30;50.60
6556;DHT22;3311;48.32423000;14.29074500;2023-03-03T06:11:32;9.40;50.60
6556;DHT22;3311;48.32423000;14.29074500;2023-03-03T06:13:59;9.20;50.70
6556;DHT22;3311;48.32423000;14.29074500;2023-03-03T06:16:27;9.20;50.90
6556;DHT22;3311;48.32423000;14.29074500;2023-03-03T06:18:54;9.20;50.90
6556;DHT22;3311;48.32423000;14.29074500;2023-03-03T06:21:21;9.20;50.90
6556;DHT22;3311;48.32423000;14.29074500;2023-03-03T06:23:48;9.30;50.80
6556;DHT22;3311;48.32423000;14.29074500;2023-03-03T06:26:16;9.30;50.80
6556;DHT22;3311;48.32423000;14.29074500;2023-03-03T06:28:44;9.20;51.00
6556;DHT22;3311;48.32423000;14.29074500;2023-03-03T06:31:12;9.20;51.10
6556;DHT22;3311;48.32423000;14.29074500;2023-03-03T06:33:39;9.20;51.40
6556;DHT22;3311;48.32423000;14.29074500;2023-03-03T06:36:07;9.30;51.50
6556;DHT22;3311;48.32423000;14.29074500;2023-03-03T06:38:35;9.20;51.80
6556;DHT22;3311;48.32423000;14.29074500;2023-03-03T06:41:04;9.20;51.90
6556;DHT22;3311;48.32423000;14.29074500;2023-03-03T06:43:34;9.30;52.10
6556;DHT22;3311;48.32423000;14.29074500;2023-03-03T06:46:03;9.60;51.90
6556;DHT22;3311;48.32423000;14.29074500;2023-03-03T06:48:31;10.10;50.00
6556;DHT22;3311;48.32423000;14.29074500;2023-03-03T06:51:01;10.30;49.30
6556;DHT22;3311;48.32423000;14.29074500;2023-03-03T06:53:31;10.40;49.00
6556;DHT22;3311;48.32423000;14.29074500;2023-03-03T06:55:59;10.60;48.80
6556;DHT22;3311;48.32423000;14.29074500;2023-03-03T06:58:27;10.90;48.30
6556;DHT22;3311;48.32423000;14.29074500;2023-03-03T07:00:57;11.10;47.80
6556;DHT22;3311;48.32423000;14.29074500;2023-03-03T07:03:27;11.20;47.40
6556;DHT22;3311;48.32423000;14.29074500;2023-03-03T07:05:58;11.30;47.20
6556;DHT22;3311;48.32423000;14.29074500;2023-03-03T07:08:30;11.40;47.10
6556;DHT22;3311;48.32423000;14.29074500;2023-03-03T07:11:01;11.50;47.00
6556;DHT22;3311;48.32423000;14.29074500;2023-03-03T07:13:43;11.60;47.00
6556;DHT22;3311;48.32423000;14.29074500;2023-03-03T07:16:12;11.70;46.90
6556;DHT22;3311;48.32423000;14.29074500;2023-03-03T07:18:47;11.80;46.70
6556;DHT22;3311;48.32423000;14.29074500;2023-03-03T07:21:19;11.90;46.70
6556;DHT22;3311;48.32423000;14.29074500;2023-03-03T07:23:49;12.00;46.60
6556;DHT22;3311;48.32423000;14.29074500;2023-03-03T07:26:18;12.10;46.40
6556;DHT22;3311;48.32423000;14.29074500;2023-03-03T07:28:52;12.20;46.20
6556;DHT22;3311;48.32423000;14.29074500;2023-03-03T07:31:27;12.30;46.10
6556;DHT22;3311;48.32423000;14.29074500;2023-03-03T07:33:58;12.30;46.20
6556;DHT22;3311;48.32423000;14.29074500;2023-03-03T07:36:29;12.30;46.30
6556;DHT22;3311;48.32423000;14.29074500;2023-03-03T07:38:59;12.30;46.40
6556;DHT22;3311;48.32423000;14.29074500;2023-03-03T07:41:27;12.20;46.60
6556;DHT22;3311;48.32423000;14.29074500;2023-03-03T07:44:01;12.20;46.50
6556;DHT22;3311;48.32423000;14.29074500;2023-03-03T07:46:35;12.20;46.60
6556;DHT22;3311;48.32423000;14.29074500;2023-03-03T07:49:21;12.30;46.60
6556;DHT22;3311;48.32423000;14.29074500;2023-03-03T07:51:52;12.30;46.60
6556;DHT22;3311;48.32423000;14.29074500;2023-03-03T07:54:29;12.50;46.30
6556;DHT22;3311;48.32423000;14.29074500;2023-03-03T07:57:06;12.60;45.90
6556;DHT22;3311;48.32423000;14.29074500;2023-03-03T07:59:38;12.80;45.60
6556;DHT22;3311;48.32423000;14.29074500;2023-03-03T08:02:33;13.00;45.20
6556;DHT22;3311;48.32423000;14.29074500;2023-03-03T08:05:26;13.10;45.10
6556;DHT22;3311;48.32423000;14.29074500;2023-03-03T08:07:55;13.20;45.00
6556;DHT22;3311;48.32423000;14.29074500;2023-03-03T08:10:34;13.30;44.80
6556;DHT22;3311;48.32423000;14.29074500;2023-03-03T08:13:12;13.30;44.70
6556;DHT22;3311;48.32423000;14.29074500;2023-03-03T08:15:42;13.20;44.70
6556;DHT22;3311;48.32423000;14.29074500;2023-03-03T08:18:21;13.10;44.70
6556;DHT22;3311;48.32423000;14.29074500;2023-03-03T08:20:52;13.00;44.80
6556;DHT22;3311;48.32423000;14.29074500;2023-03-03T08:23:21;13.00;45.00
6556;DHT22;3311;48.32423000;14.29074500;2023-03-03T08:25:49;13.00;44.90
6556;DHT22;3311;48.32423000;14.29074500;2023-03-03T08:28:17;13.00;45.00
6556;DHT22;3311;48.32423000;14.29074500;2023-03-03T08:30:44;13.10;45.00
6556;DHT22;3311;48.32423000;14.29074500;2023-03-03T08:33:13;13.10;44.80
6556;DHT22;3311;48.32423000;14.29074500;2023-03-03T08:35:41;13.10;44.90
6556;DHT22;3311;48.32423000;14.29074500;2023-03-03T08:38:10;13.20;44.70
6556;DHT22;3311;48.32423000;14.29074500;2023-03-03T08:40:38;13.40;44.50
6556;DHT22;3311;48.32423000;14.29074500;2023-03-03T08:43:06;13.30;44.20
6556;DHT22;3311;48.32423000;14.29074500;2023-03-03T08:45:34;13.50;44.30
6556;DHT22;3311;48.32423000;14.29074500;2023-03-03T08:48:02;13.50;44.10
6556;DHT22;3311;48.32423000;14.29074500;2023-03-03T08:50:29;13.50;44.10
6556;DHT22;3311;48.32423000;14.29074500;2023-03-03T08:52:57;13.50;44.00
6556;DHT22;3311;48.32423000;14.29074500;2023-03-03T08:55:26;13.60;44.10
6556;DHT22;3311;48.32423000;14.29074500;2023-03-03T08:57:53;13.60;43.80
6556;DHT22;3311;48.32423000;14.29074500;2023-03-03T09:00:20;13.60;44.10
6556;DHT22;3311;48.32423000;14.29074500;2023-03-03T09:02:48;13.50;43.80
6556;DHT22;3311;48.32423000;14.29074500;2023-03-03T09:05:17;13.50;43.90
6556;DHT22;3311;48.32423000;14.29074500;2023-03-03T09:07:46;13.50;44.00
6556;DHT22;3311;48.32423000;14.29074500;2023-03-03T09:10:15;13.60;43.70
6556;DHT22;3311;48.32423000;14.29074500;2023-03-03T09:12:46;13.70;43.70
6556;DHT22;3311;48.32423000;14.29074500;2023-03-03T09:15:20;13.60;43.60
6556;DHT22;3311;48.32423000;14.29074500;2023-03-03T09:17:49;13.60;43.50
6556;DHT22;3311;48.32423000;14.29074500;2023-03-03T09:20:29;13.60;43.50
6556;DHT22;3311;48.32423000;14.29074500;2023-03-03T09:22:58;13.60;43.40
6556;DHT22;3311;48.32423000;14.29074500;2023-03-03T09:25:30;13.60;43.50
6556;DHT22;3311;48.32423000;14.29074500;2023-03-03T09:28:00;13.70;43.30
6556;DHT22;3311;48.32423000;14.29074500;2023-03-03T09:30:36;13.70;43.40
6556;DHT22;3311;48.32423000;14.29074500;2023-03-03T09:33:28;13.70;43.70
6556;DHT22;3311;48.32423000;14.29074500;2023-03-03T09:36:10;13.70;43.20
6556;DHT22;3311;48.32423000;14.29074500;2023-03-03T09:38:42;13.80;43.20
6556;DHT22;3311;48.32423000;14.29074500;2023-03-03T09:41:23;13.80;42.90
6556;DHT22;3311;48.32423000;14.29074500;2023-03-03T09:44:16;13.80;43.00
6556;DHT22;3311;48.32423000;14.29074500;2023-03-03T09:46:56;13.70;42.90
6556;DHT22;3311;48.32423000;14.29074500;2023-03-03T09:49:31;13.70;42.80
6556;DHT22;3311;48.32423000;14.29074500;2023-03-03T09:52:20;13.70;43.00
6556;DHT22;3311;48.32423000;14.29074500;2023-03-03T09:54:58;13.80;43.00
6556;DHT22;3311;48.32423000;14.29074500;2023-03-03T09:57:50;13.80;42.90
6556;DHT22;3311;48.32423000;14.29074500;2023-03-03T10:00:35;13.80;42.80
6556;DHT22;3311;48.32423000;14.29074500;2023-03-03T10:03:38;13.90;42.70
6556;DHT22;3311;48.32423000;14.29074500;2023-03-03T10:06:17;13.90;42.70
6556;DHT22;3311;48.32423000;14.29074500;2023-03-03T10:09:07;13.90;42.40
6556;DHT22;3311;48.32423000;14.29074500;2023-03-03T10:11:41;13.90;42.50
6556;DHT22;3311;48.32423000;14.29074500;2023-03-03T10:14:24;14.00;42.60
6556;DHT22;3311;48.32423000;14.29074500;2023-03-03T10:17:29;14.00;42.60
6556;DHT22;3311;48.32423000;14.29074500;2023-03-03T10:20:11;14.00;42.50
6556;DHT22;3311;48.32423000;14.29074500;2023-03-03T10:22:47;14.00;42.30
6556;DHT22;3311;48.32423000;14.29074500;2023-03-03T10:25:25;14.00;42.30
6556;DHT22;3311;48.32423000;14.29074500;2023-03-03T10:28:03;14.00;42.20
6556;DHT22;3311;48.32423000;14.29074500;2023-03-03T10:30:39;13.90;42.20
6556;DHT22;3311;48.32423000;14.29074500;2023-03-03T10:33:18;13.90;42.40
6556;DHT22;3311;48.32423000;14.29074500;2023-03-03T10:36:08;13.90;42.40
6556;DHT22;3311;48.32423000;14.29074500;2023-03-03T10:38:54;13.90;42.40
6556;DHT22;3311;48.32423000;14.29074500;2023-03-03T10:41:42;13.90;42.20
6556;DHT22;3311;48.32423000;14.29074500;2023-03-03T10:44:26;13.80;42.20
6556;DHT22;3311;48.32423000;14.29074500;2023-03-03T10:49:58;13.80;42.50
6556;DHT22;3311;48.32423000;14.29074500;2023-03-03T10:52:36;13.80;42.40
6556;DHT22;3311;48.32423000;14.29074500;2023-03-03T10:55:17;13.80;42.60
6556;DHT22;3311;48.32423000;14.29074500;2023-03-03T10:57:57;13.90;42.60
6556;DHT22;3311;48.32423000;14.29074500;2023-03-03T11:00:32;13.90;42.60
6556;DHT22;3311;48.32423000;14.29074500;2023-03-03T11:03:26;13.90;42.70
6556;DHT22;3311;48.32423000;14.29074500;2023-03-03T11:06:03;14.00;42.80
6556;DHT22;3311;48.32423000;14.29074500;2023-03-03T11:08:35;14.00;42.60
6556;DHT22;3311;48.32423000;14.29074500;2023-03-03T11:11:11;14.00;42.60
6556;DHT22;3311;48.32423000;14.29074500;2023-03-03T11:13:44;14.00;42.50
6556;DHT22;3311;48.32423000;14.29074500;2023-03-03T11:16:36;13.90;42.60
6556;DHT22;3311;48.32423000;14.29074500;2023-03-03T11:19:18;13.90;42.60
6556;DHT22;3311;48.32423000;14.29074500;2023-03-03T11:21:57;14.00;42.60
6556;DHT22;3311;48.32423000;14.29074500;2023-03-03T11:24:34;14.00;42.60
6556;DHT22;3311;48.32423000;14.29074500;2023-03-03T11:27:17;14.00;42.60
6556;DHT22;3311;48.32423000;14.29074500;2023-03-03T11:29:59;14.00;42.80
6556;DHT22;3311;48.32423000;14.29074500;2023-03-03T11:32:37;14.00;42.70
6556;DHT22;3311;48.32423000;14.29074500;2023-03-03T11:35:21;14.00;42.60
6556;DHT22;3311;48.32423000;14.29074500;2023-03-03T11:38:00;14.00;43.30
6556;DHT22;3311;48.32423000;14.29074500;2023-03-03T11:40:38;13.90;42.90
6556;DHT22;3311;48.32423000;14.29074500;2023-03-03T11:43:14;13.90;43.10
6556;DHT22;3311;48.32423000;14.29074500;2023-03-03T11:45:45;13.80;43.00
6556;DHT22;3311;48.32423000;14.29074500;2023-03-03T11:48:19;13.90;43.40
6556;DHT22;3311;48.32423000;14.29074500;2023-03-03T11:50:54;13.90;43.50
6556;DHT22;3311;48.32423000;14.29074500;2023-03-03T11:53:33;13.90;43.50
6556;DHT22;3311;48.32423000;14.29074500;2023-03-03T11:56:12;13.90;43.60
6556;DHT22;3311;48.32423000;14.29074500;2023-03-03T11:58:47;14.00;43.70
6556;DHT22;3311;48.32423000;14.29074500;2023-03-03T12:01:21;14.00;43.50
6556;DHT22;3311;48.32423000;14.29074500;2023-03-03T12:03:54;14.00;43.30
6556;DHT22;3311;48.32423000;14.29074500;2023-03-03T12:06:30;14.00;43.20
6556;DHT22;3311;48.32423000;14.29074500;2023-03-03T12:09:16;14.00;43.40
6556;DHT22;3311;48.32423000;14.29074500;2023-03-03T12:11:48;14.00;43.40
6556;DHT22;3311;48.32423000;14.29074500;2023-03-03T12:14:28;14.00;43.50
6556;DHT22;3311;48.32423000;14.29074500;2023-03-03T12:17:00;14.00;43.40
6556;DHT22;3311;48.32423000;14.29074500;2023-03-03T12:19:34;14.00;43.00
6556;DHT22;3311;48.32423000;14.29074500;2023-03-03T12:22:21;14.00;43.20
6556;DHT22;3311;48.32423000;14.29074500;2023-03-03T12:25:07;14.10;43.30
6556;DHT22;3311;48.32423000;14.29074500;2023-03-03T12:27:42;14.00;43.00
6556;DHT22;3311;48.32423000;14.29074500;2023-03-03T12:30:19;14.00;43.10
6556;DHT22;3311;48.32423000;14.29074500;2023-03-03T12:33:04;14.00;43.10
6556;DHT22;3311;48.32423000;14.29074500;2023-03-03T12:35:38;14.00;43.10
6556;DHT22;3311;48.32423000;14.29074500;2023-03-03T12:38:13;14.00;43.20
6556;DHT22;3311;48.32423000;14.29074500;2023-03-03T12:40:53;14.00;43.00
6556;DHT22;3311;48.32423000;14.29074500;2023-03-03T12:43:45;14.00;42.90
6556;DHT22;3311;48.32423000;14.29074500;2023-03-03T12:46:20;14.00;43.00
6556;DHT22;3311;48.32423000;14.29074500;2023-03-03T12:48:49;14.00;43.00
6556;DHT22;3311;48.32423000;14.29074500;2023-03-03T12:51:28;14.00;43.20
6556;DHT22;3311;48.32423000;14.29074500;2023-03-03T12:54:24;14.00;43.10
6556;DHT22;3311;48.32423000;14.29074500;2023-03-03T12:57:02;14.00;43.10
6556;DHT22;3311;48.32423000;14.29074500;2023-03-03T12:59:40;14.00;43.00
6556;DHT22;3311;48.32423000;14.29074500;2023-03-03T13:02:28;14.00;43.00
6556;DHT22;3311;48.32423000;14.29074500;2023-03-03T13:05:07;14.00;43.20
6556;DHT22;3311;48.32423000;14.29074500;2023-03-03T13:07:40;14.00;43.20
6556;DHT22;3311;48.32423000;14.29074500;2023-03-03T13:10:17;14.00;43.20
6556;DHT22;3311;48.32423000;14.29074500;2023-03-03T13:12:52;14.00;42.90
6556;DHT22;3311;48.32423000;14.29074500;2023-03-03T13:15:24;14.00;43.10
6556;DHT22;3311;48.32423000;14.29074500;2023-03-03T13:17:59;14.00;43.20
6556;DHT22;3311;48.32423000;14.29074500;2023-03-03T13:20:39;14.00;43.00
6556;DHT22;3311;48.32423000;14.29074500;2023-03-03T13:23:11;14.00;43.00
6556;DHT22;3311;48.32423000;14.29074500;2023-03-03T13:25:47;14.10;43.20
6556;DHT22;3311;48.32423000;14.29074500;2023-03-03T13:28:23;14.10;43.10
6556;DHT22;3311;48.32423000;14.29074500;2023-03-03T13:30:56;14.10;43.10
6556;DHT22;3311;48.32423000;14.29074500;2023-03-03T13:33:29;14.10;43.40
6556;DHT22;3311;48.32423000;14.29074500;2023-03-03T13:35:59;14.10;43.20
6556;DHT22;3311;48.32423000;14.29074500;2023-03-03T13:38:30;14.10;43.20
6556;DHT22;3311;48.32423000;14.29074500;2023-03-03T13:41:06;14.10;43.10
6556;DHT22;3311;48.32423000;14.29074500;2023-03-03T13:43:43;14.10;43.30
6556;DHT22;3311;48.32423000;14.29074500;2023-03-03T13:46:17;14.10;43.30
6556;DHT22;3311;48.32423000;14.29074500;2023-03-03T13:49:02;14.10;43.40
6556;DHT22;3311;48.32423000;14.29074500;2023-03-03T13:51:40;14.10;43.40
6556;DHT22;3311;48.32423000;14.29074500;2023-03-03T13:54:22;14.10;43.40
6556;DHT22;3311;48.32423000;14.29074500;2023-03-03T13:57:07;14.10;43.30
6556;DHT22;3311;48.32423000;14.29074500;2023-03-03T13:59:44;14.10;43.40
6556;DHT22;3311;48.32423000;14.29074500;2023-03-03T14:02:28;14.10;43.40
6556;DHT22;3311;48.32423000;14.29074500;2023-03-03T14:05:02;14.10;43.30
6556;DHT22;3311;48.32423000;14.29074500;2023-03-03T14:07:35;14.10;43.30
6556;DHT22;3311;48.32423000;14.29074500;2023-03-03T14:10:10;14.00;43.30